CheckWX is a tool to help pilots better visualize weather data.  It is not intended as a substitute for an official pre-flight weather briefing.

23:07:29 UTC

EGPH METAR
Edinburgh Airport
Edinburgh, United Kingdom
Current

47 mins ago

EGPH 022220Z 25008KT CAVOK 02/M03 Q1012
Observed
Apr-2 @ 22:20 UTC
Wind
  • 250° at 8 KTS
Visibility
10,000+ meters
Flight Rules
VFR
Cloud Levels
  • Clear skies
Temperature
C / 36°F
Dewpoint
-3°C / 27°F
Humidity
70%
Altimeter
29.88" Hg
Pressure
1011.92 hPa
Previous

1 hour ago

EGPH 022150Z 24008KT CAVOK 02/M03 Q1012
Observed
Apr-2 @ 21:50 UTC
Wind
  • 240° at 8 KTS
Visibility
10,000+ meters
Flight Rules
VFR
Cloud Levels
  • Clear skies
Temperature
C / 36°F
Dewpoint
-3°C / 27°F
Humidity
70%
Altimeter
29.88" Hg
Pressure
1011.92 hPa
Previous

2 hours ago

EGPH 022120Z 25007KT CAVOK 03/M03 Q1012
Observed
Apr-2 @ 21:20 UTC
Wind
  • 250° at 7 KTS
Visibility
10,000+ meters
Flight Rules
VFR
Cloud Levels
  • Clear skies
Temperature
C / 37°F
Dewpoint
-3°C / 27°F
Humidity
65%
Altimeter
29.88" Hg
Pressure
1011.92 hPa